createdAt,value
2024-05-09T00:01:13.200Z,8.50
2024-05-09T00:06:59.963Z,7.60
2024-05-09T00:12:46.801Z,8.98
2024-05-09T00:24:37.745Z,10.50
2024-05-09T00:30:33.143Z,7.82
2024-05-09T00:36:22.710Z,9.20
2024-05-09T00:42:09.433Z,8.63
2024-05-09T00:47:57.030Z,8.05
2024-05-09T00:53:44.332Z,7.93
2024-05-09T00:59:33.024Z,8.82
2024-05-09T01:05:19.980Z,7.53
2024-05-09T01:11:07.855Z,8.38
2024-05-09T01:16:55.131Z,8.32
2024-05-09T01:22:44.491Z,7.35
2024-05-09T01:28:31.396Z,8.10
2024-05-09T01:34:18.990Z,7.28
2024-05-09T01:40:12.181Z,7.80
2024-05-09T01:46:01.850Z,7.63
2024-05-09T01:51:48.720Z,7.55
2024-05-09T01:57:35.571Z,96.53
2024-05-09T02:03:22.493Z,134.38
2024-05-09T02:09:09.825Z,125.03
2024-05-09T02:14:56.685Z,125.10
2024-05-09T02:20:44.085Z,9.55
2024-05-09T02:26:31.160Z,7.90
2024-05-09T02:32:18.078Z,8.43
2024-05-09T02:38:05.328Z,8.27
2024-05-09T02:43:52.134Z,7.50
2024-05-09T02:49:39.108Z,8.23
2024-05-09T02:55:25.962Z,95.30
2024-05-09T03:01:20.009Z,9.10
2024-05-09T03:07:06.991Z,8.07
2024-05-09T03:12:53.835Z,8.85
2024-05-09T03:18:40.697Z,8.00
2024-05-09T03:24:30.513Z,9.13
2024-05-09T03:30:29.200Z,7.53
2024-05-09T03:36:23.068Z,8.25
2024-05-09T03:42:09.814Z,9.38
2024-05-09T03:47:56.953Z,7.82
2024-05-09T03:53:44.021Z,8.07
2024-05-09T03:59:33.616Z,9.05
2024-05-09T04:05:20.891Z,8.30
2024-05-09T04:11:07.826Z,7.32
2024-05-09T04:16:54.830Z,8.70
2024-05-09T04:22:41.633Z,8.38
2024-05-09T04:28:29.660Z,6.28
2024-05-09T04:34:17.098Z,6.45
2024-05-09T04:40:07.017Z,8.45
2024-05-09T04:45:55.711Z,6.80
2024-05-09T04:51:42.614Z,7.38
2024-05-09T04:57:29.484Z,7.97
2024-05-09T05:03:20.167Z,7.43
2024-05-09T05:09:07.454Z,8.25
2024-05-09T05:14:54.264Z,7.45
2024-05-09T05:20:44.624Z,7.57
2024-05-09T05:26:31.946Z,7.43
2024-05-09T05:32:19.955Z,7.72
2024-05-09T05:38:08.405Z,8.13
2024-05-09T05:43:55.497Z,7.25
2024-05-09T05:49:45.457Z,9.23
2024-05-09T05:55:40.596Z,7.72
2024-05-09T06:01:28.006Z,9.07
2024-05-09T06:07:15.163Z,7.40
2024-05-09T06:13:04.710Z,6.97
2024-05-09T06:18:52.295Z,8.13
2024-05-09T06:24:39.391Z,11.25
2024-05-09T06:31:01.355Z,8.80
2024-05-09T06:36:48.714Z,7.83
2024-05-09T06:42:35.608Z,6.70
2024-05-09T06:48:23.059Z,10.07
2024-05-09T06:54:10.440Z,9.70
2024-05-09T06:59:59.914Z,8.30
2024-05-09T07:05:48.664Z,9.40
2024-05-09T07:11:37.602Z,9.25
2024-05-09T07:17:24.794Z,8.38
2024-05-09T07:23:12.770Z,8.68
2024-05-09T07:29:01.069Z,10.25
2024-05-09T07:34:47.879Z,9.65
2024-05-09T07:40:38.792Z,9.50
2024-05-09T07:47:20.733Z,10.07
2024-05-09T07:53:33.081Z,8.65
2024-05-09T07:58:46.694Z,7.55
2024-05-09T08:04:34.138Z,6.70
2024-05-09T08:10:24.674Z,7.47
2024-05-09T08:16:16.491Z,9.63
2024-05-09T08:22:07.155Z,8.32
2024-05-09T08:27:54.505Z,8.80
2024-05-09T08:33:48.371Z,6.20
2024-05-09T08:39:35.654Z,8.13
2024-05-09T08:45:31.728Z,8.60
2024-05-09T08:51:18.808Z,8.57
2024-05-09T08:57:06.649Z,8.27
2024-05-09T09:02:55.176Z,8.82
2024-05-09T09:08:46.809Z,8.07
2024-05-09T09:14:34.257Z,8.77
2024-05-09T09:20:26.433Z,8.90
2024-05-09T09:26:40.585Z,7.43
2024-05-09T09:32:30.664Z,7.38
2024-05-09T09:38:21.609Z,7.78
2024-05-09T09:44:09.958Z,8.02
2024-05-09T09:49:58.449Z,7.32
2024-05-09T09:55:46.678Z,6.40
2024-05-09T10:01:35.222Z,8.63
2024-05-09T10:07:23.262Z,6.55
2024-05-09T10:13:10.405Z,9.60
2024-05-09T10:18:57.817Z,7.93
2024-05-09T10:24:47.794Z,7.78
2024-05-09T10:30:36.358Z,8.38
2024-05-09T10:36:25.593Z,7.78
2024-05-09T10:42:12.522Z,8.27
2024-05-09T10:48:00.105Z,12.15
2024-05-09T10:53:48.375Z,7.30
2024-05-09T10:59:39.468Z,8.98
2024-05-09T11:05:27.324Z,7.47
2024-05-09T11:11:16.782Z,10.88
2024-05-09T11:17:06.433Z,11.02
2024-05-09T11:22:53.569Z,11.20
2024-05-09T11:28:44.176Z,9.10
2024-05-09T11:34:31.124Z,9.30
2024-05-09T11:40:25.212Z,7.75
2024-05-09T11:46:15.723Z,9.48
2024-05-09T11:52:03.034Z,9.07
2024-05-09T11:57:50.055Z,9.80
2024-05-09T12:03:37.989Z,9.80
2024-05-09T12:09:25.479Z,9.48
2024-05-09T12:15:12.731Z,10.10
2024-05-09T12:21:00.708Z,10.32
2024-05-09T12:26:51.335Z,12.35
2024-05-09T12:32:39.923Z,10.18
2024-05-09T12:38:27.172Z,8.43
2024-05-09T12:44:14.094Z,10.07
2024-05-09T12:50:01.266Z,12.35
2024-05-09T12:55:56.269Z,12.05
2024-05-09T13:01:46.791Z,8.75
2024-05-09T13:07:35.153Z,7.90
2024-05-09T13:13:22.334Z,5.70
2024-05-09T13:19:09.547Z,6.18
2024-05-09T13:24:56.797Z,8.25
2024-05-09T13:30:44.034Z,9.30
2024-05-09T13:36:31.300Z,9.13
2024-05-09T13:42:18.377Z,7.70
2024-05-09T13:48:07.185Z,7.60
2024-05-09T13:53:56.128Z,6.93
2024-05-09T13:59:43.677Z,10.77
2024-05-09T14:05:31.232Z,8.52
2024-05-09T14:11:19.837Z,7.97
2024-05-09T14:17:07.123Z,12.60
2024-05-09T14:22:54.415Z,10.27
2024-05-09T14:28:41.569Z,10.02
2024-05-09T14:34:28.664Z,8.38
2024-05-09T14:40:30.474Z,7.85
2024-05-09T14:46:22.910Z,7.53
2024-05-09T14:52:10.273Z,8.90
2024-05-09T14:57:57.587Z,9.57
2024-05-09T15:03:44.540Z,8.00
2024-05-09T15:09:37.921Z,9.90
2024-05-09T15:15:24.999Z,9.85
2024-05-09T15:21:11.986Z,7.75
2024-05-09T15:26:59.606Z,6.43
2024-05-09T15:32:47.667Z,10.18
2024-05-09T15:38:35.895Z,8.13
2024-05-09T15:44:24.019Z,8.93
2024-05-09T15:50:20.212Z,7.05
2024-05-09T15:56:14.872Z,7.35
2024-05-09T16:02:06.725Z,4.97
2024-05-09T16:07:54.058Z,5.55
2024-05-09T16:13:40.898Z,5.97
2024-05-09T16:19:40.240Z,6.30
2024-05-09T16:26:15.453Z,6.93
2024-05-09T16:32:11.432Z,6.85
2024-05-09T16:37:58.700Z,7.85
2024-05-09T16:43:45.587Z,7.22
2024-05-09T16:49:35.455Z,7.30
2024-05-09T16:55:22.492Z,8.77
2024-05-09T17:01:09.499Z,4.78
2024-05-09T17:06:56.891Z,6.63
2024-05-09T17:12:43.803Z,6.72
2024-05-09T17:18:34.202Z,7.20
2024-05-09T17:24:47.441Z,6.45
2024-05-09T17:37:01.541Z,5.80
2024-05-09T17:42:54.680Z,7.55
2024-05-09T17:48:42.354Z,7.13
2024-05-09T17:54:29.739Z,7.57
2024-05-09T18:00:28.848Z,6.70
2024-05-09T18:06:23.602Z,6.68
2024-05-09T18:12:10.552Z,8.88
2024-05-09T18:17:57.571Z,7.57
2024-05-09T18:23:44.771Z,8.27
2024-05-09T18:29:32.326Z,8.23
2024-05-09T18:35:19.472Z,7.05
2024-05-09T18:41:06.444Z,7.40
2024-05-09T18:46:53.780Z,8.00
2024-05-09T18:52:41.478Z,9.00
2024-05-09T18:58:28.877Z,11.55
2024-05-09T19:04:18.550Z,8.15
2024-05-09T19:10:11.873Z,8.52
2024-05-09T19:16:09.449Z,8.32
2024-05-09T19:21:58.527Z,7.20
2024-05-09T19:27:47.115Z,7.13
2024-05-09T19:33:37.038Z,6.68
2024-05-09T19:39:26.126Z,7.95
2024-05-09T19:45:13.456Z,8.48
2024-05-09T19:51:00.790Z,7.70
2024-05-09T19:56:49.017Z,7.90
2024-05-09T20:02:35.995Z,7.30
2024-05-09T20:08:28.380Z,8.77
2024-05-09T20:14:15.386Z,9.20
2024-05-09T20:20:07.491Z,7.47
2024-05-09T20:26:14.207Z,8.13
2024-05-09T20:32:04.686Z,8.07
2024-05-09T20:37:57.999Z,7.32
2024-05-09T20:43:44.957Z,7.88
2024-05-09T20:49:31.931Z,10.05
2024-05-09T20:55:19.211Z,8.90
2024-05-09T21:01:14.952Z,7.13
2024-05-09T21:07:02.158Z,7.32
2024-05-09T21:12:49.468Z,9.30
2024-05-09T21:18:36.902Z,7.38
2024-05-09T21:24:24.006Z,7.40
2024-05-09T21:30:18.429Z,6.43
2024-05-09T21:36:10.130Z,7.57
2024-05-09T21:42:01.692Z,7.78
2024-05-09T21:47:48.852Z,7.73
2024-05-09T21:53:43.109Z,8.55
2024-05-09T21:59:33.474Z,8.43
2024-05-09T22:05:20.380Z,8.18
2024-05-09T22:11:10.253Z,7.20
2024-05-09T22:17:00.359Z,7.18
2024-05-09T22:22:47.279Z,6.65
2024-05-09T22:28:34.714Z,6.15
2024-05-09T22:34:23.837Z,8.90
2024-05-09T22:40:15.105Z,7.32
2024-05-09T22:46:07.108Z,7.05
2024-05-09T22:51:53.877Z,8.45
2024-05-09T22:57:40.980Z,8.65
2024-05-09T23:03:28.109Z,6.90
2024-05-09T23:09:15.071Z,7.53
2024-05-09T23:15:01.905Z,10.13
2024-05-09T23:20:48.705Z,6.97
2024-05-09T23:26:35.533Z,8.98
2024-05-09T23:32:22.424Z,8.65
2024-05-09T23:38:09.414Z,8.07
2024-05-09T23:43:56.223Z,7.35
2024-05-09T23:49:42.933Z,8.57
2024-05-09T23:55:31.211Z,6.97
